OOCL Oakland — 3EKJ6 — position and weather

sailwx.info

Track history (hours):
 
Tides and Currents Weather Stations Pressure Air Temp Water Temp Dewpoint Dewpoint Depression Visibility Wind Speed Wind Dir Waves Ship Positions

OOCL Oakland

Last reported at 2014-Nov-28 14:34 UTC. Time now 2014-Nov-28 14:42 UTC.
Position N 33°38' W 118°25'.

Length 280 m; draft 11.6 m.

Type: Ship. MMSI: 372703235.

Date/timePositionNaut miles runAvg speedWind from/ knotsBaromVisibWave heightAir tempDewpointWater temp
2014-Nov-28 14:34N 33°38' W 118°25'9 9.2
2014-Nov-28 13:34N 33°42' W 118°35'1010.1
2014-Nov-28 12:33N 33°48' W 118°46'10 9.8
2014-Nov-28 11:34N 33°53' W 118°56'10 9.8
2014-Nov-28 10:33N 33°58' W 119°06'1211.6
2014-Nov-28 09:33N 34°03' W 119°18'1312.8
2014-Nov-28 08:34N 34°06' W 119°33'4413.4
2014-Nov-28 05:16N 34°18' W 120°25'913.2
2014-Nov-28 04:33N 34°20' W 120°36'1313.2
2014-Nov-28 03:33N 34°24' W 120°51'1313.3
2014-Nov-28 02:33N 34°27' W 121°07'1313.4
2014-Nov-28 01:33N 34°30' W 121°23'1313.2
2014-Nov-28 00:33N 34°31' W 121°38'1413.5
2014-Nov-27 23:33N 34°33' W 121°55'1313.2
2014-Nov-27 22:33N 34°35' W 122°11'1413.7
2014-Nov-27 21:33N 34°37' W 122°27'1313.5
2014-Nov-27 20:33N 34°39' W 122°43'1313.5
2014-Nov-27 19:33N 34°41' W 122°60'1313.3
2014-Nov-27 18:33N 34°43' W 123°16'1313.2
2014-Nov-27 17:33N 34°45' W 123°32'1413.5
2014-Nov-27 16:33N 34°47' W 123°48'1413.5
2014-Nov-27 15:33N 34°49' W 124°04'1313.3
2014-Nov-27 14:33N 34°51' W 124°20'1313.5
2014-Nov-27 13:33N 34°53' W 124°36'1413.7
2014-Nov-27 12:33N 34°55' W 124°53'1413.9
2014-Nov-27 11:33N 34°57' W 125°10'1413.9
2014-Nov-27 10:33N 34°58' W 125°26'1413.8
2014-Nov-27 09:33N 35°01' W 125°43'1716.3
2014-Nov-27 08:32N 35°11' W 125°59'1616.2
2014-Nov-27 07:34N 35°20' W 126°15'1616.2
2014-Nov-27 06:33N 35°29' W 126°32'1616.3
2014-Nov-27 05:33N 35°39' W 126°48'1716.6
2014-Nov-27 04:33N 35°48' W 127°05'1916.6
2014-Nov-27 03:27N 35°59' W 127°24'1516.4
2014-Nov-27 02:33N 36°08' W 127°38'1616.3
2014-Nov-27 01:33N 36°17' W 127°54'1616.0
2014-Nov-27 00:33N 36°26' W 128°11'2115.9
2014-Nov-26 23:14N 36°38' W 128°32'1115.9
2014-Nov-26 22:33N 36°44' W 128°43'1616.0
2014-Nov-26 21:33N 36°54' W 128°60'1616.0
2014-Nov-26 20:33N 37°02' W 129°16'1616.0
2014-Nov-26 19:33N 37°12' W 129°32'1616.0
2014-Nov-26 18:33N 37°22' W 129°48'2016.1
2014-Nov-26 17:20N 37°32' W 130°09'1216.1
2014-Nov-26 16:33N 37°38' W 130°23'1916.0
2014-Nov-26 15:24N 37°48' W 130°43'1416.1
2014-Nov-26 14:31N 37°55' W 130°59'  
Track history (hours):
 
Tides and Currents Weather Stations Pressure Air Temp Water Temp Dewpoint Dewpoint Depression Visibility Wind Speed Wind Dir Waves Ship Positions

OOCL Oakland

Last reported at 2014-Nov-28 14:34 UTC. Time now 2014-Nov-28 14:42 UTC.
Position N 33°38' W 118°25'.

Length 280 m; draft 11.6 m.

Type: Ship. MMSI: 372703235.

Date/timePositionNaut miles runAvg speedWind from/ knotsBaromVisibWave heightAir tempDewpointWater temp
2014-Nov-28 14:34N 33°38' W 118°25'9 9.2
2014-Nov-28 13:34N 33°42' W 118°35'1010.1
2014-Nov-28 12:33N 33°48' W 118°46'10 9.8
2014-Nov-28 11:34N 33°53' W 118°56'10 9.8
2014-Nov-28 10:33N 33°58' W 119°06'1211.6
2014-Nov-28 09:33N 34°03' W 119°18'1312.8
2014-Nov-28 08:34N 34°06' W 119°33'4413.4
2014-Nov-28 05:16N 34°18' W 120°25'913.2
2014-Nov-28 04:33N 34°20' W 120°36'1313.2
2014-Nov-28 03:33N 34°24' W 120°51'1313.3
2014-Nov-28 02:33N 34°27' W 121°07'1313.4
2014-Nov-28 01:33N 34°30' W 121°23'1313.2
2014-Nov-28 00:33N 34°31' W 121°38'1413.5
2014-Nov-27 23:33N 34°33' W 121°55'1313.2
2014-Nov-27 22:33N 34°35' W 122°11'1413.7
2014-Nov-27 21:33N 34°37' W 122°27'1313.5
2014-Nov-27 20:33N 34°39' W 122°43'1313.5
2014-Nov-27 19:33N 34°41' W 122°60'1313.3
2014-Nov-27 18:33N 34°43' W 123°16'1313.2
2014-Nov-27 17:33N 34°45' W 123°32'1413.5
2014-Nov-27 16:33N 34°47' W 123°48'1413.5
2014-Nov-27 15:33N 34°49' W 124°04'1313.3
2014-Nov-27 14:33N 34°51' W 124°20'1313.5
2014-Nov-27 13:33N 34°53' W 124°36'1413.7
2014-Nov-27 12:33N 34°55' W 124°53'1413.9
2014-Nov-27 11:33N 34°57' W 125°10'1413.9
2014-Nov-27 10:33N 34°58' W 125°26'1413.8
2014-Nov-27 09:33N 35°01' W 125°43'1716.3
2014-Nov-27 08:32N 35°11' W 125°59'1616.2
2014-Nov-27 07:34N 35°20' W 126°15'1616.2
2014-Nov-27 06:33N 35°29' W 126°32'1616.3
2014-Nov-27 05:33N 35°39' W 126°48'1716.6
2014-Nov-27 04:33N 35°48' W 127°05'1916.6
2014-Nov-27 03:27N 35°59' W 127°24'1516.4
2014-Nov-27 02:33N 36°08' W 127°38'1616.3
2014-Nov-27 01:33N 36°17' W 127°54'1616.0
2014-Nov-27 00:33N 36°26' W 128°11'2115.9
2014-Nov-26 23:14N 36°38' W 128°32'1115.9
2014-Nov-26 22:33N 36°44' W 128°43'1616.0
2014-Nov-26 21:33N 36°54' W 128°60'1616.0
2014-Nov-26 20:33N 37°02' W 129°16'1616.0
2014-Nov-26 19:33N 37°12' W 129°32'1616.0
2014-Nov-26 18:33N 37°22' W 129°48'2016.1
2014-Nov-26 17:20N 37°32' W 130°09'1216.1
2014-Nov-26 16:33N 37°38' W 130°23'1916.0
2014-Nov-26 15:24N 37°48' W 130°43'1416.1
2014-Nov-26 14:31N 37°55' W 130°59'  

Dump ship's entire track history